Aeroporto :
LOGIN :

Iscrizione | Disclaimer

   EN    FR    IT 

 










Sommario :    VFR   VFR Marginale   IFR   IFR Intensivo   IFR Molto Intensivo
Visibilità : 
Base nubi : 
>= 8 km
>= 3000ft
5 / 8 km
1000 / 3000 ft
1500m / 5 km
500 / 1000 ft
800 / 1500m
200 / 500 ft
< 800m
< 200 ft
Simboli :   Temporali  Nebbia  Neve Forte  Precipitazioni Forti  Vento > 20 kt
SIGMETs :   Varie  Temporali  Ghiacco  Turbolenza  Onda orograficha  Ceneri Vulcaniche







- Altitudine del aeroporto : 388 ft
- Codice IATA : QYR
- Carte del aeroporto


LFQB - Troyes Barberey

ULTIMO METAR :
  • 241330Z AUTO 10004KT 040V180 CAVOK 30/13 Q1018

METARs OBSOLETI :
  • 241300Z AUTO 06005KT 350V100 CAVOK 30/13 Q1018
  • 241230Z AUTO 06006KT 010V120 CAVOK 29/14 Q1018
  • 241200Z AUTO VRB05KT CAVOK 29/13 Q1019
  • 241130Z AUTO VRB05KT CAVOK 28/15 Q1019
  • 241100Z AUTO 09007KT 040V140 CAVOK 27/15 Q1019

TAF N/A
Nessun NOTAM noto per questo aeroporto.



MetMap, La meteo Aeronautica in un colpo d'occhio ! - Copyright ORBIFLY Dicembre 2007 - Disclaimer

ORBIFLY MET'MAP TEAM :

Programmazione e sviluppo : Alexandra Zaïnal
Concezione e sviluppo : Baudouin d'Aumeries
Co-Programmazione e sviluppo : Marc-Olivier Méhu
Supporto tecnico e logistico : Manuel Goepfert
Aiuto per la traduzione : Arnaldo La Scala

Contatto : metmap@orbifly.com




FONTI E CREDITI :

   NOAA